sensor_id;sensor_type;location;lat;lon;timestamp;temperature;humidity
59075;DHT22;44860;53.020;6.738;2023-04-12T00:00:37;7.20;99.90
59075;DHT22;44860;53.020;6.738;2023-04-12T00:03:05;7.20;99.90
59075;DHT22;44860;53.020;6.738;2023-04-12T00:05:36;7.10;99.90
59075;DHT22;44860;53.020;6.738;2023-04-12T00:08:01;7.20;99.90
59075;DHT22;44860;53.020;6.738;2023-04-12T00:10:29;7.20;99.90
59075;DHT22;44860;53.020;6.738;2023-04-12T00:12:55;7.20;99.90
59075;DHT22;44860;53.020;6.738;2023-04-12T00:15:21;7.20;99.90
59075;DHT22;44860;53.020;6.738;2023-04-12T00:17:46;7.20;99.90
59075;DHT22;44860;53.020;6.738;2023-04-12T00:20:12;7.20;99.90
59075;DHT22;44860;53.020;6.738;2023-04-12T00:22:43;7.20;99.90
59075;DHT22;44860;53.020;6.738;2023-04-12T00:25:09;7.30;99.90
59075;DHT22;44860;53.020;6.738;2023-04-12T00:27:35;7.30;99.90
59075;DHT22;44860;53.020;6.738;2023-04-12T00:30:01;7.30;99.90
59075;DHT22;44860;53.020;6.738;2023-04-12T00:32:28;7.30;99.90
59075;DHT22;44860;53.020;6.738;2023-04-12T00:34:54;7.30;99.90
59075;DHT22;44860;53.020;6.738;2023-04-12T00:37:20;7.40;99.90
59075;DHT22;44860;53.020;6.738;2023-04-12T00:39:46;7.40;99.90
59075;DHT22;44860;53.020;6.738;2023-04-12T00:42:11;7.40;99.90
59075;DHT22;44860;53.020;6.738;2023-04-12T00:44:37;7.40;99.90
59075;DHT22;44860;53.020;6.738;2023-04-12T00:47:03;7.40;99.90
59075;DHT22;44860;53.020;6.738;2023-04-12T00:49:33;7.50;99.90
59075;DHT22;44860;53.020;6.738;2023-04-12T00:52:00;7.50;99.90
59075;DHT22;44860;53.020;6.738;2023-04-12T00:54:29;7.50;99.90
59075;DHT22;44860;53.020;6.738;2023-04-12T00:56:55;7.50;99.90
59075;DHT22;44860;53.020;6.738;2023-04-12T00:59:25;7.50;99.90
59075;DHT22;44860;53.020;6.738;2023-04-12T01:01:53;7.50;99.90
59075;DHT22;44860;53.020;6.738;2023-04-12T01:04:19;7.60;99.90
59075;DHT22;44860;53.020;6.738;2023-04-12T01:07:18;7.60;99.90
59075;DHT22;44860;53.020;6.738;2023-04-12T01:15:40;7.50;99.90
59075;DHT22;44860;53.020;6.738;2023-04-12T01:18:11;7.60;99.90
59075;DHT22;44860;53.020;6.738;2023-04-12T01:20:49;7.60;99.90
59075;DHT22;44860;53.020;6.738;2023-04-12T01:23:42;7.70;99.90
59075;DHT22;44860;53.020;6.738;2023-04-12T01:28:58;7.80;99.90
59075;DHT22;44860;53.020;6.738;2023-04-12T01:31:26;8.00;99.90
59075;DHT22;44860;53.020;6.738;2023-04-12T01:33:53;8.00;99.90
59075;DHT22;44860;53.020;6.738;2023-04-12T01:36:22;8.00;99.90
59075;DHT22;44860;53.020;6.738;2023-04-12T01:38:52;8.10;99.90
59075;DHT22;44860;53.020;6.738;2023-04-12T01:41:22;8.20;99.90
59075;DHT22;44860;53.020;6.738;2023-04-12T01:43:48;8.20;99.90
59075;DHT22;44860;53.020;6.738;2023-04-12T01:46:20;8.30;99.90
59075;DHT22;44860;53.020;6.738;2023-04-12T01:48:51;8.30;99.90
59075;DHT22;44860;53.020;6.738;2023-04-12T01:51:38;8.40;99.90
59075;DHT22;44860;53.020;6.738;2023-04-12T01:54:15;8.40;99.90
59075;DHT22;44860;53.020;6.738;2023-04-12T01:56:47;8.40;99.90
59075;DHT22;44860;53.020;6.738;2023-04-12T01:59:16;8.40;99.90
59075;DHT22;44860;53.020;6.738;2023-04-12T02:01:43;8.40;99.90
59075;DHT22;44860;53.020;6.738;2023-04-12T02:04:09;8.50;99.90
59075;DHT22;44860;53.020;6.738;2023-04-12T02:06:36;8.50;99.90
59075;DHT22;44860;53.020;6.738;2023-04-12T02:09:03;8.50;99.90
59075;DHT22;44860;53.020;6.738;2023-04-12T02:11:30;8.50;99.90
59075;DHT22;44860;53.020;6.738;2023-04-12T02:13:57;8.50;99.90
59075;DHT22;44860;53.020;6.738;2023-04-12T02:16:22;8.50;99.90
59075;DHT22;44860;53.020;6.738;2023-04-12T02:25:38;8.50;99.90
59075;DHT22;44860;53.020;6.738;2023-04-12T02:28:05;8.50;99.90
59075;DHT22;44860;53.020;6.738;2023-04-12T02:30:34;8.40;99.90
59075;DHT22;44860;53.020;6.738;2023-04-12T02:33:00;8.50;99.90
59075;DHT22;44860;53.020;6.738;2023-04-12T02:35:26;8.50;99.90
59075;DHT22;44860;53.020;6.738;2023-04-12T02:37:55;8.50;99.90
59075;DHT22;44860;53.020;6.738;2023-04-12T02:40:21;8.50;99.90
59075;DHT22;44860;53.020;6.738;2023-04-12T02:42:47;8.50;99.90
59075;DHT22;44860;53.020;6.738;2023-04-12T02:45:12;8.60;99.90
59075;DHT22;44860;53.020;6.738;2023-04-12T02:47:38;8.60;99.90
59075;DHT22;44860;53.020;6.738;2023-04-12T02:50:05;8.50;99.90
59075;DHT22;44860;53.020;6.738;2023-04-12T02:52:31;8.60;99.90
59075;DHT22;44860;53.020;6.738;2023-04-12T02:54:57;8.60;99.90
59075;DHT22;44860;53.020;6.738;2023-04-12T02:57:23;8.60;99.90
59075;DHT22;44860;53.020;6.738;2023-04-12T02:59:50;8.60;99.90
59075;DHT22;44860;53.020;6.738;2023-04-12T03:02:19;8.60;99.90
59075;DHT22;44860;53.020;6.738;2023-04-12T03:04:45;8.60;99.90
59075;DHT22;44860;53.020;6.738;2023-04-12T03:07:12;8.60;99.90
59075;DHT22;44860;53.020;6.738;2023-04-12T03:09:39;8.60;99.90
59075;DHT22;44860;53.020;6.738;2023-04-12T03:12:07;8.70;99.90
59075;DHT22;44860;53.020;6.738;2023-04-12T03:14:33;8.60;99.90
59075;DHT22;44860;53.020;6.738;2023-04-12T03:16:58;8.60;99.90
59075;DHT22;44860;53.020;6.738;2023-04-12T03:19:24;8.60;99.90
59075;DHT22;44860;53.020;6.738;2023-04-12T03:21:50;8.60;99.90
59075;DHT22;44860;53.020;6.738;2023-04-12T03:24:15;8.60;99.90
59075;DHT22;44860;53.020;6.738;2023-04-12T03:26:42;8.60;99.90
59075;DHT22;44860;53.020;6.738;2023-04-12T03:29:08;8.60;99.90
59075;DHT22;44860;53.020;6.738;2023-04-12T03:31:34;8.70;99.90
59075;DHT22;44860;53.020;6.738;2023-04-12T03:34:00;8.70;99.90
59075;DHT22;44860;53.020;6.738;2023-04-12T03:36:26;8.60;99.90
59075;DHT22;44860;53.020;6.738;2023-04-12T03:38:52;8.70;99.90
59075;DHT22;44860;53.020;6.738;2023-04-12T03:41:22;8.70;99.90
59075;DHT22;44860;53.020;6.738;2023-04-12T03:43:48;8.70;99.90
59075;DHT22;44860;53.020;6.738;2023-04-12T03:46:14;8.70;99.90
59075;DHT22;44860;53.020;6.738;2023-04-12T03:48:40;8.70;99.90
59075;DHT22;44860;53.020;6.738;2023-04-12T03:51:10;8.70;99.90
59075;DHT22;44860;53.020;6.738;2023-04-12T03:53:40;8.70;99.90
59075;DHT22;44860;53.020;6.738;2023-04-12T03:56:06;8.70;99.90
59075;DHT22;44860;53.020;6.738;2023-04-12T03:58:31;8.70;99.90
59075;DHT22;44860;53.020;6.738;2023-04-12T04:01:02;8.70;99.90
59075;DHT22;44860;53.020;6.738;2023-04-12T04:03:34;8.70;99.90
59075;DHT22;44860;53.020;6.738;2023-04-12T04:06:00;8.70;99.90
59075;DHT22;44860;53.020;6.738;2023-04-12T04:08:27;8.70;99.90
59075;DHT22;44860;53.020;6.738;2023-04-12T04:10:53;8.70;99.90
59075;DHT22;44860;53.020;6.738;2023-04-12T04:13:19;8.70;99.90
59075;DHT22;44860;53.020;6.738;2023-04-12T04:15:45;8.70;99.90
59075;DHT22;44860;53.020;6.738;2023-04-12T04:18:10;8.60;99.90
59075;DHT22;44860;53.020;6.738;2023-04-12T04:20:36;8.60;99.90
59075;DHT22;44860;53.020;6.738;2023-04-12T04:23:02;8.60;99.90
59075;DHT22;44860;53.020;6.738;2023-04-12T04:25:27;8.60;99.90
59075;DHT22;44860;53.020;6.738;2023-04-12T04:27:57;8.60;99.90
59075;DHT22;44860;53.020;6.738;2023-04-12T04:30:24;8.60;99.90
59075;DHT22;44860;53.020;6.738;2023-04-12T04:32:54;8.60;99.90
59075;DHT22;44860;53.020;6.738;2023-04-12T04:35:20;8.60;99.90
59075;DHT22;44860;53.020;6.738;2023-04-12T04:37:46;8.60;99.90
59075;DHT22;44860;53.020;6.738;2023-04-12T04:40:12;8.50;99.90
59075;DHT22;44860;53.020;6.738;2023-04-12T04:42:37;8.50;99.90
59075;DHT22;44860;53.020;6.738;2023-04-12T04:45:07;8.50;99.90
59075;DHT22;44860;53.020;6.738;2023-04-12T04:47:41;8.50;99.90
59075;DHT22;44860;53.020;6.738;2023-04-12T04:50:07;8.50;99.90
59075;DHT22;44860;53.020;6.738;2023-04-12T04:52:33;8.40;99.90
59075;DHT22;44860;53.020;6.738;2023-04-12T04:54:58;8.40;99.90
59075;DHT22;44860;53.020;6.738;2023-04-12T04:57:24;8.40;99.90
59075;DHT22;44860;53.020;6.738;2023-04-12T04:59:54;8.40;99.90
59075;DHT22;44860;53.020;6.738;2023-04-12T05:02:19;8.30;99.90
59075;DHT22;44860;53.020;6.738;2023-04-12T05:04:45;8.40;99.90
59075;DHT22;44860;53.020;6.738;2023-04-12T05:07:11;8.30;99.90
59075;DHT22;44860;53.020;6.738;2023-04-12T05:09:38;8.40;99.90
59075;DHT22;44860;53.020;6.738;2023-04-12T05:12:04;8.30;99.90
59075;DHT22;44860;53.020;6.738;2023-04-12T05:14:30;8.40;99.90
59075;DHT22;44860;53.020;6.738;2023-04-12T05:16:55;8.30;99.90
59075;DHT22;44860;53.020;6.738;2023-04-12T05:19:21;8.30;99.90
59075;DHT22;44860;53.020;6.738;2023-04-12T05:21:47;8.30;99.90
59075;DHT22;44860;53.020;6.738;2023-04-12T05:24:12;8.30;99.90
59075;DHT22;44860;53.020;6.738;2023-04-12T05:26:38;8.20;99.90
59075;DHT22;44860;53.020;6.738;2023-04-12T05:29:03;8.20;99.90
59075;DHT22;44860;53.020;6.738;2023-04-12T05:31:30;8.20;99.90
59075;DHT22;44860;53.020;6.738;2023-04-12T05:33:56;8.20;99.90
59075;DHT22;44860;53.020;6.738;2023-04-12T05:36:22;8.20;99.90
59075;DHT22;44860;53.020;6.738;2023-04-12T05:38:48;8.20;99.90
59075;DHT22;44860;53.020;6.738;2023-04-12T05:41:13;8.20;99.90
59075;DHT22;44860;53.020;6.738;2023-04-12T05:43:39;8.20;99.90
59075;DHT22;44860;53.020;6.738;2023-04-12T05:46:05;8.20;99.90
59075;DHT22;44860;53.020;6.738;2023-04-12T05:48:33;8.20;99.90
59075;DHT22;44860;53.020;6.738;2023-04-12T05:51:00;8.20;99.90
59075;DHT22;44860;53.020;6.738;2023-04-12T05:53:26;8.20;99.90
59075;DHT22;44860;53.020;6.738;2023-04-12T05:55:54;8.20;99.90
59075;DHT22;44860;53.020;6.738;2023-04-12T05:58:19;8.10;99.90
59075;DHT22;44860;53.020;6.738;2023-04-12T06:00:45;8.10;99.90
59075;DHT22;44860;53.020;6.738;2023-04-12T06:03:11;8.10;99.90
59075;DHT22;44860;53.020;6.738;2023-04-12T06:05:37;8.10;99.90
59075;DHT22;44860;53.020;6.738;2023-04-12T06:08:05;8.10;99.90
59075;DHT22;44860;53.020;6.738;2023-04-12T06:10:32;8.10;99.90
59075;DHT22;44860;53.020;6.738;2023-04-12T06:12:58;8.10;99.90
59075;DHT22;44860;53.020;6.738;2023-04-12T06:15:24;8.10;99.90
59075;DHT22;44860;53.020;6.738;2023-04-12T06:17:50;8.10;99.90
59075;DHT22;44860;53.020;6.738;2023-04-12T06:20:16;8.10;99.90
59075;DHT22;44860;53.020;6.738;2023-04-12T06:22:45;8.10;99.90
59075;DHT22;44860;53.020;6.738;2023-04-12T06:25:10;8.10;99.90
59075;DHT22;44860;53.020;6.738;2023-04-12T06:27:36;8.10;99.90
59075;DHT22;44860;53.020;6.738;2023-04-12T06:30:02;8.10;99.90
59075;DHT22;44860;53.020;6.738;2023-04-12T06:32:27;8.10;99.90
59075;DHT22;44860;53.020;6.738;2023-04-12T06:34:53;8.10;99.90
59075;DHT22;44860;53.020;6.738;2023-04-12T06:37:20;8.10;99.90
59075;DHT22;44860;53.020;6.738;2023-04-12T06:39:46;8.10;99.90
59075;DHT22;44860;53.020;6.738;2023-04-12T06:42:12;8.10;99.90
59075;DHT22;44860;53.020;6.738;2023-04-12T06:44:38;8.10;99.90
59075;DHT22;44860;53.020;6.738;2023-04-12T06:47:04;8.10;99.90
59075;DHT22;44860;53.020;6.738;2023-04-12T06:49:29;8.10;99.90
59075;DHT22;44860;53.020;6.738;2023-04-12T06:51:55;8.00;99.90
59075;DHT22;44860;53.020;6.738;2023-04-12T06:54:21;8.10;99.90
59075;DHT22;44860;53.020;6.738;2023-04-12T06:56:47;8.10;99.90
59075;DHT22;44860;53.020;6.738;2023-04-12T06:59:15;8.10;99.90
59075;DHT22;44860;53.020;6.738;2023-04-12T07:01:42;8.10;99.90
59075;DHT22;44860;53.020;6.738;2023-04-12T07:04:08;8.10;99.90
59075;DHT22;44860;53.020;6.738;2023-04-12T07:06:33;8.10;99.90
59075;DHT22;44860;53.020;6.738;2023-04-12T07:08:59;8.10;99.90
59075;DHT22;44860;53.020;6.738;2023-04-12T07:11:25;8.10;99.90
59075;DHT22;44860;53.020;6.738;2023-04-12T07:13:51;8.10;99.90
59075;DHT22;44860;53.020;6.738;2023-04-12T07:16:17;8.10;99.90
59075;DHT22;44860;53.020;6.738;2023-04-12T07:18:43;8.10;99.90
59075;DHT22;44860;53.020;6.738;2023-04-12T07:21:09;8.10;99.90
59075;DHT22;44860;53.020;6.738;2023-04-12T07:23:38;8.10;99.90
59075;DHT22;44860;53.020;6.738;2023-04-12T07:26:04;8.10;99.90
59075;DHT22;44860;53.020;6.738;2023-04-12T07:28:31;8.10;99.90
59075;DHT22;44860;53.020;6.738;2023-04-12T07:30:56;8.10;99.90
59075;DHT22;44860;53.020;6.738;2023-04-12T07:33:24;8.10;99.90
59075;DHT22;44860;53.020;6.738;2023-04-12T07:35:50;8.10;99.90
59075;DHT22;44860;53.020;6.738;2023-04-12T07:38:16;8.10;99.90
59075;DHT22;44860;53.020;6.738;2023-04-12T07:40:41;8.20;99.90
59075;DHT22;44860;53.020;6.738;2023-04-12T07:43:07;8.10;99.90
59075;DHT22;44860;53.020;6.738;2023-04-12T07:45:35;8.20;99.90
59075;DHT22;44860;53.020;6.738;2023-04-12T07:48:01;8.20;99.90
59075;DHT22;44860;53.020;6.738;2023-04-12T07:50:27;8.10;99.90
59075;DHT22;44860;53.020;6.738;2023-04-12T07:52:56;8.10;99.90
59075;DHT22;44860;53.020;6.738;2023-04-12T07:55:22;8.10;99.90
59075;DHT22;44860;53.020;6.738;2023-04-12T07:57:48;8.10;99.90
59075;DHT22;44860;53.020;6.738;2023-04-12T08:00:14;8.10;99.90
59075;DHT22;44860;53.020;6.738;2023-04-12T08:02:40;8.10;99.90
59075;DHT22;44860;53.020;6.738;2023-04-12T08:05:07;8.20;99.90
59075;DHT22;44860;53.020;6.738;2023-04-12T08:07:32;8.20;99.90
59075;DHT22;44860;53.020;6.738;2023-04-12T08:09:58;8.20;99.90
59075;DHT22;44860;53.020;6.738;2023-04-12T08:12:24;8.20;99.90
59075;DHT22;44860;53.020;6.738;2023-04-12T08:14:50;8.20;99.90
59075;DHT22;44860;53.020;6.738;2023-04-12T08:17:16;8.20;99.90
59075;DHT22;44860;53.020;6.738;2023-04-12T08:19:41;8.20;99.90
59075;DHT22;44860;53.020;6.738;2023-04-12T08:22:08;8.20;99.90
59075;DHT22;44860;53.020;6.738;2023-04-12T08:24:34;8.20;99.90
59075;DHT22;44860;53.020;6.738;2023-04-12T08:27:00;8.20;99.90
59075;DHT22;44860;53.020;6.738;2023-04-12T08:29:26;8.20;99.90
59075;DHT22;44860;53.020;6.738;2023-04-12T08:31:52;8.30;99.90
59075;DHT22;44860;53.020;6.738;2023-04-12T08:34:18;8.30;99.90
59075;DHT22;44860;53.020;6.738;2023-04-12T08:36:44;8.30;99.90
59075;DHT22;44860;53.020;6.738;2023-04-12T08:39:10;8.30;99.90
59075;DHT22;44860;53.020;6.738;2023-04-12T08:41:37;8.40;99.90
59075;DHT22;44860;53.020;6.738;2023-04-12T08:44:03;8.40;99.90
59075;DHT22;44860;53.020;6.738;2023-04-12T08:46:29;8.40;99.90
59075;DHT22;44860;53.020;6.738;2023-04-12T08:48:55;8.40;99.90
59075;DHT22;44860;53.020;6.738;2023-04-12T08:51:22;8.50;99.90
59075;DHT22;44860;53.020;6.738;2023-04-12T08:53:51;8.50;99.90
59075;DHT22;44860;53.020;6.738;2023-04-12T08:56:18;8.50;99.90
59075;DHT22;44860;53.020;6.738;2023-04-12T08:58:46;8.50;99.90
59075;DHT22;44860;53.020;6.738;2023-04-12T09:01:16;8.50;99.90
59075;DHT22;44860;53.020;6.738;2023-04-12T09:03:43;8.50;99.90
59075;DHT22;44860;53.020;6.738;2023-04-12T09:06:10;8.50;99.90
59075;DHT22;44860;53.020;6.738;2023-04-12T09:08:36;8.60;99.90
59075;DHT22;44860;53.020;6.738;2023-04-12T09:11:14;8.60;99.90
59075;DHT22;44860;53.020;6.738;2023-04-12T09:13:55;8.60;99.90
59075;DHT22;44860;53.020;6.738;2023-04-12T09:16:38;8.60;99.90
59075;DHT22;44860;53.020;6.738;2023-04-12T09:19:05;8.60;99.90
59075;DHT22;44860;53.020;6.738;2023-04-12T09:21:32;8.70;99.90
59075;DHT22;44860;53.020;6.738;2023-04-12T09:26:29;8.70;99.90
59075;DHT22;44860;53.020;6.738;2023-04-12T09:28:56;8.70;99.90
59075;DHT22;44860;53.020;6.738;2023-04-12T09:31:21;8.70;99.90
59075;DHT22;44860;53.020;6.738;2023-04-12T09:33:47;8.70;99.90
59075;DHT22;44860;53.020;6.738;2023-04-12T09:36:13;8.70;99.90
59075;DHT22;44860;53.020;6.738;2023-04-12T09:38:39;8.70;99.90
59075;DHT22;44860;53.020;6.738;2023-04-12T09:41:16;8.80;99.90
59075;DHT22;44860;53.020;6.738;2023-04-12T09:43:42;8.70;99.90
59075;DHT22;44860;53.020;6.738;2023-04-12T09:46:13;8.80;99.90
59075;DHT22;44860;53.020;6.738;2023-04-12T09:48:39;8.80;99.90
59075;DHT22;44860;53.020;6.738;2023-04-12T09:51:06;8.90;99.90
59075;DHT22;44860;53.020;6.738;2023-04-12T09:53:34;9.00;99.90
59075;DHT22;44860;53.020;6.738;2023-04-12T09:56:02;9.00;99.90
59075;DHT22;44860;53.020;6.738;2023-04-12T09:58:30;9.10;99.90
59075;DHT22;44860;53.020;6.738;2023-04-12T10:00:57;9.10;99.90
59075;DHT22;44860;53.020;6.738;2023-04-12T10:03:24;9.10;99.90
59075;DHT22;44860;53.020;6.738;2023-04-12T10:05:51;9.20;99.90
59075;DHT22;44860;53.020;6.738;2023-04-12T10:08:18;9.20;99.90
59075;DHT22;44860;53.020;6.738;2023-04-12T10:10:44;9.30;99.90
59075;DHT22;44860;53.020;6.738;2023-04-12T10:13:11;9.40;99.90
59075;DHT22;44860;53.020;6.738;2023-04-12T10:15:39;9.40;99.90
59075;DHT22;44860;53.020;6.738;2023-04-12T10:18:06;9.50;99.90
59075;DHT22;44860;53.020;6.738;2023-04-12T10:20:35;9.60;99.90
59075;DHT22;44860;53.020;6.738;2023-04-12T10:23:05;9.60;99.90
59075;DHT22;44860;53.020;6.738;2023-04-12T10:25:31;9.70;99.90
59075;DHT22;44860;53.020;6.738;2023-04-12T10:28:14;9.70;99.90
59075;DHT22;44860;53.020;6.738;2023-04-12T10:30:40;9.70;99.90
59075;DHT22;44860;53.020;6.738;2023-04-12T10:35:54;9.80;99.90
59075;DHT22;44860;53.020;6.738;2023-04-12T10:38:23;9.90;99.90
59075;DHT22;44860;53.020;6.738;2023-04-12T10:41:16;9.90;99.90
59075;DHT22;44860;53.020;6.738;2023-04-12T10:43:47;10.00;99.90
59075;DHT22;44860;53.020;6.738;2023-04-12T10:49:28;10.10;99.90
59075;DHT22;44860;53.020;6.738;2023-04-12T10:56:51;10.20;99.90
59075;DHT22;44860;53.020;6.738;2023-04-12T10:59:17;10.30;99.90
59075;DHT22;44860;53.020;6.738;2023-04-12T11:04:27;10.50;99.90
59075;DHT22;44860;53.020;6.738;2023-04-12T11:07:07;10.60;99.90
59075;DHT22;44860;53.020;6.738;2023-04-12T11:09:39;10.70;99.90
59075;DHT22;44860;53.020;6.738;2023-04-12T11:14:37;10.90;99.90
59075;DHT22;44860;53.020;6.738;2023-04-12T11:19:32;11.00;99.90
59075;DHT22;44860;53.020;6.738;2023-04-12T11:22:03;11.10;99.90
59075;DHT22;44860;53.020;6.738;2023-04-12T11:24:32;11.10;99.90
59075;DHT22;44860;53.020;6.738;2023-04-12T11:26:59;11.20;99.90
59075;DHT22;44860;53.020;6.738;2023-04-12T11:29:26;11.40;99.90
59075;DHT22;44860;53.020;6.738;2023-04-12T11:31:52;11.40;99.90
59075;DHT22;44860;53.020;6.738;2023-04-12T11:34:21;11.50;99.90
59075;DHT22;44860;53.020;6.738;2023-04-12T11:36:57;11.60;99.90
59075;DHT22;44860;53.020;6.738;2023-04-12T11:39:25;11.70;99.90
59075;DHT22;44860;53.020;6.738;2023-04-12T11:41:54;11.80;99.90
59075;DHT22;44860;53.020;6.738;2023-04-12T11:44:22;12.00;99.90
59075;DHT22;44860;53.020;6.738;2023-04-12T11:46:48;12.10;99.90
59075;DHT22;44860;53.020;6.738;2023-04-12T11:49:15;12.20;99.90
59075;DHT22;44860;53.020;6.738;2023-04-12T11:51:42;12.20;99.90
59075;DHT22;44860;53.020;6.738;2023-04-12T11:54:09;12.40;99.90
59075;DHT22;44860;53.020;6.738;2023-04-12T11:56:36;12.60;99.90
59075;DHT22;44860;53.020;6.738;2023-04-12T11:59:02;12.60;99.90
59075;DHT22;44860;53.020;6.738;2023-04-12T12:01:28;12.60;99.90
59075;DHT22;44860;53.020;6.738;2023-04-12T12:03:54;12.60;99.90
59075;DHT22;44860;53.020;6.738;2023-04-12T12:06:21;12.60;99.90
59075;DHT22;44860;53.020;6.738;2023-04-12T12:08:49;12.60;99.90
59075;DHT22;44860;53.020;6.738;2023-04-12T12:11:19;12.60;99.90
59075;DHT22;44860;53.020;6.738;2023-04-12T12:13:47;12.50;99.90
59075;DHT22;44860;53.020;6.738;2023-04-12T12:16:13;12.50;99.90
59075;DHT22;44860;53.020;6.738;2023-04-12T12:18:40;12.50;99.90
59075;DHT22;44860;53.020;6.738;2023-04-12T12:21:08;12.50;99.90
59075;DHT22;44860;53.020;6.738;2023-04-12T12:23:35;12.40;99.90
59075;DHT22;44860;53.020;6.738;2023-04-12T12:26:01;12.40;99.90
59075;DHT22;44860;53.020;6.738;2023-04-12T12:28:38;12.40;99.90
59075;DHT22;44860;53.020;6.738;2023-04-12T12:31:10;12.40;99.90
59075;DHT22;44860;53.020;6.738;2023-04-12T12:33:37;12.40;99.90
59075;DHT22;44860;53.020;6.738;2023-04-12T12:36:04;12.30;99.90
59075;DHT22;44860;53.020;6.738;2023-04-12T12:38:40;12.30;99.90
59075;DHT22;44860;53.020;6.738;2023-04-12T12:41:22;12.40;99.90
59075;DHT22;44860;53.020;6.738;2023-04-12T12:43:50;12.40;99.90
59075;DHT22;44860;53.020;6.738;2023-04-12T12:46:16;12.40;99.90
59075;DHT22;44860;53.020;6.738;2023-04-12T12:48:43;12.50;99.90
59075;DHT22;44860;53.020;6.738;2023-04-12T12:51:09;12.60;99.90
59075;DHT22;44860;53.020;6.738;2023-04-12T12:53:36;12.60;99.90
59075;DHT22;44860;53.020;6.738;2023-04-12T12:56:03;12.70;99.90
59075;DHT22;44860;53.020;6.738;2023-04-12T12:58:29;12.70;99.90
59075;DHT22;44860;53.020;6.738;2023-04-12T13:00:55;12.70;99.90
59075;DHT22;44860;53.020;6.738;2023-04-12T13:03:21;12.80;99.90
59075;DHT22;44860;53.020;6.738;2023-04-12T13:05:46;12.80;99.90
59075;DHT22;44860;53.020;6.738;2023-04-12T13:08:12;12.90;99.90
59075;DHT22;44860;53.020;6.738;2023-04-12T13:10:38;12.90;99.90
59075;DHT22;44860;53.020;6.738;2023-04-12T13:13:03;13.00;99.90
59075;DHT22;44860;53.020;6.738;2023-04-12T13:15:29;13.10;99.90
59075;DHT22;44860;53.020;6.738;2023-04-12T13:17:55;13.10;99.90
59075;DHT22;44860;53.020;6.738;2023-04-12T13:20:24;13.20;99.90
59075;DHT22;44860;53.020;6.738;2023-04-12T13:22:50;13.10;99.90
59075;DHT22;44860;53.020;6.738;2023-04-12T13:25:19;13.10;99.90
59075;DHT22;44860;53.020;6.738;2023-04-12T13:27:49;13.20;99.90
59075;DHT22;44860;53.020;6.738;2023-04-12T13:30:19;13.20;99.90
59075;DHT22;44860;53.020;6.738;2023-04-12T13:32:45;13.10;99.90
59075;DHT22;44860;53.020;6.738;2023-04-12T13:35:11;13.10;99.90
59075;DHT22;44860;53.020;6.738;2023-04-12T13:37:37;13.10;99.90
59075;DHT22;44860;53.020;6.738;2023-04-12T13:40:03;13.10;99.90
59075;DHT22;44860;53.020;6.738;2023-04-12T13:42:29;13.00;99.90
59075;DHT22;44860;53.020;6.738;2023-04-12T13:44:55;13.00;99.90
59075;DHT22;44860;53.020;6.738;2023-04-12T13:47:21;13.00;99.90
59075;DHT22;44860;53.020;6.738;2023-04-12T13:49:47;13.00;99.90
59075;DHT22;44860;53.020;6.738;2023-04-12T13:52:12;13.00;99.90
59075;DHT22;44860;53.020;6.738;2023-04-12T13:54:38;12.90;99.90
59075;DHT22;44860;53.020;6.738;2023-04-12T13:57:05;12.90;99.90
59075;DHT22;44860;53.020;6.738;2023-04-12T13:59:31;12.90;99.90
59075;DHT22;44860;53.020;6.738;2023-04-12T14:01:57;13.00;99.90
59075;DHT22;44860;53.020;6.738;2023-04-12T14:04:25;13.10;99.90
59075;DHT22;44860;53.020;6.738;2023-04-12T14:06:51;13.10;99.90
59075;DHT22;44860;53.020;6.738;2023-04-12T14:09:28;13.10;99.90
59075;DHT22;44860;53.020;6.738;2023-04-12T14:11:55;13.20;99.90
59075;DHT22;44860;53.020;6.738;2023-04-12T14:14:25;13.20;99.90
59075;DHT22;44860;53.020;6.738;2023-04-12T14:16:52;13.10;99.90
59075;DHT22;44860;53.020;6.738;2023-04-12T14:19:21;13.10;99.90
59075;DHT22;44860;53.020;6.738;2023-04-12T14:21:48;13.00;99.60
59075;DHT22;44860;53.020;6.738;2023-04-12T14:24:17;13.00;99.90
59075;DHT22;44860;53.020;6.738;2023-04-12T14:26:43;12.90;99.90
59075;DHT22;44860;53.020;6.738;2023-04-12T14:29:10;12.90;99.90
59075;DHT22;44860;53.020;6.738;2023-04-12T14:31:36;13.00;99.90
59075;DHT22;44860;53.020;6.738;2023-04-12T14:34:05;13.00;99.90
59075;DHT22;44860;53.020;6.738;2023-04-12T14:36:33;13.00;99.90
59075;DHT22;44860;53.020;6.738;2023-04-12T14:38:59;13.00;99.90
59075;DHT22;44860;53.020;6.738;2023-04-12T14:41:25;13.00;99.90
59075;DHT22;44860;53.020;6.738;2023-04-12T14:43:51;13.00;98.30
59075;DHT22;44860;53.020;6.738;2023-04-12T14:46:17;13.00;95.10
59075;DHT22;44860;53.020;6.738;2023-04-12T14:48:42;13.00;93.90
59075;DHT22;44860;53.020;6.738;2023-04-12T14:51:09;12.90;93.20
59075;DHT22;44860;53.020;6.738;2023-04-12T14:53:34;12.90;90.90
59075;DHT22;44860;53.020;6.738;2023-04-12T14:56:00;12.80;85.60
59075;DHT22;44860;53.020;6.738;2023-04-12T14:58:27;12.80;83.50
59075;DHT22;44860;53.020;6.738;2023-04-12T15:00:55;12.70;81.40
59075;DHT22;44860;53.020;6.738;2023-04-12T15:03:20;12.70;83.40
59075;DHT22;44860;53.020;6.738;2023-04-12T15:05:46;12.80;78.80
59075;DHT22;44860;53.020;6.738;2023-04-12T15:08:12;12.80;79.40
59075;DHT22;44860;53.020;6.738;2023-04-12T15:10:38;12.80;78.20
59075;DHT22;44860;53.020;6.738;2023-04-12T15:13:04;12.80;78.00
59075;DHT22;44860;53.020;6.738;2023-04-12T15:15:29;12.80;78.20
59075;DHT22;44860;53.020;6.738;2023-04-12T15:17:55;12.80;77.30
59075;DHT22;44860;53.020;6.738;2023-04-12T15:20:21;12.80;72.40
59075;DHT22;44860;53.020;6.738;2023-04-12T15:22:46;12.70;73.40
59075;DHT22;44860;53.020;6.738;2023-04-12T15:25:12;12.80;75.10
59075;DHT22;44860;53.020;6.738;2023-04-12T15:27:37;12.70;76.70
59075;DHT22;44860;53.020;6.738;2023-04-12T15:30:04;12.70;77.80
59075;DHT22;44860;53.020;6.738;2023-04-12T15:32:33;12.70;77.10
59075;DHT22;44860;53.020;6.738;2023-04-12T15:35:02;12.70;76.20
59075;DHT22;44860;53.020;6.738;2023-04-12T15:37:31;12.60;75.90
59075;DHT22;44860;53.020;6.738;2023-04-12T15:39:59;12.60;79.80
59075;DHT22;44860;53.020;6.738;2023-04-12T15:42:25;12.60;82.00
59075;DHT22;44860;53.020;6.738;2023-04-12T15:44:51;12.60;82.90
59075;DHT22;44860;53.020;6.738;2023-04-12T15:47:16;12.50;87.10
59075;DHT22;44860;53.020;6.738;2023-04-12T15:49:42;12.50;90.90
59075;DHT22;44860;53.020;6.738;2023-04-12T15:52:08;12.40;92.80
59075;DHT22;44860;53.020;6.738;2023-04-12T15:54:33;12.30;94.20
59075;DHT22;44860;53.020;6.738;2023-04-12T15:56:59;12.30;95.80
59075;DHT22;44860;53.020;6.738;2023-04-12T15:59:33;12.20;96.30
59075;DHT22;44860;53.020;6.738;2023-04-12T16:01:59;12.10;96.90
59075;DHT22;44860;53.020;6.738;2023-04-12T16:04:25;12.00;98.00
59075;DHT22;44860;53.020;6.738;2023-04-12T16:06:51;12.00;99.00
59075;DHT22;44860;53.020;6.738;2023-04-12T16:09:17;11.90;99.90
59075;DHT22;44860;53.020;6.738;2023-04-12T16:11:43;11.90;99.90
59075;DHT22;44860;53.020;6.738;2023-04-12T16:14:10;11.80;99.90
59075;DHT22;44860;53.020;6.738;2023-04-12T16:16:36;11.80;99.90